createdAt,value
2019-04-16T00:01:00.939Z,95.0591
2019-04-16T00:02:10.012Z,92.9259
2019-04-16T00:03:20.349Z,94.4823
2019-04-16T00:04:31.949Z,94.4137
2019-04-16T00:05:40.299Z,94.3633
2019-04-16T00:06:48.275Z,91.8776
2019-04-16T00:07:56.964Z,90.8492
2019-04-16T00:09:05.919Z,89.7353
2019-04-16T00:10:14.959Z,92.3781
2019-04-16T00:11:23.294Z,93.1228
2019-04-16T00:12:32.940Z,93.3577
2019-04-16T00:13:41.292Z,92.2621
2019-04-16T00:14:50.902Z,92.2438
2019-04-16T00:15:59.944Z,93.1838
2019-04-16T00:17:09.013Z,92.4315
2019-04-16T00:18:18.744Z,89.0227
2019-04-16T00:19:26.891Z,87.8721
2019-04-16T00:20:37.933Z,88.6152
2019-04-16T00:21:46.987Z,87.8492
2019-04-16T00:22:56.016Z,89.3523
2019-04-16T00:24:04.796Z,89.2775
2019-04-16T00:25:13.975Z,92.0577
2019-04-16T00:26:26.580Z,92.2484
2019-04-16T00:27:35.734Z,89.9504
2019-04-16T00:28:44.285Z,90.4463
2019-04-16T00:29:53.005Z,90.1106
2019-04-16T00:31:01.277Z,89.0852
2019-04-16T00:32:10.011Z,89.2149
2019-04-16T00:33:18.920Z,89.2912
2019-04-16T00:34:27.901Z,88.4413
2019-04-16T00:35:36.951Z,88.2170
2019-04-16T00:36:48.419Z,89.2454
2019-04-16T00:37:58.415Z,89.5491
2019-04-16T00:39:06.953Z,90.5928
2019-04-16T00:40:15.910Z,90.0053
2019-04-16T00:41:25.057Z,89.4881
2019-04-16T00:42:34.002Z,89.6315
2019-04-16T00:43:44.083Z,90.2586
2019-04-16T00:44:54.006Z,90.5272
2019-04-16T00:46:03.110Z,91.9524
2019-04-16T00:47:11.967Z,91.5129
2019-04-16T00:48:20.907Z,90.2159
2019-04-16T00:49:31.003Z,90.8583
2019-04-16T00:50:39.301Z,89.8314
2019-04-16T00:51:47.967Z,89.2088
2019-04-16T00:52:56.293Z,90.7149
2019-04-16T00:54:09.891Z,90.9178
2019-04-16T00:55:18.295Z,91.2688
2019-04-16T00:56:26.888Z,92.4193
2019-04-16T00:57:35.950Z,92.1859
2019-04-16T00:58:44.973Z,93.2387
2019-04-16T00:59:56.283Z,93.1869
2019-04-16T01:01:05.264Z,92.7214
2019-04-16T01:02:12.921Z,93.1609
2019-04-16T01:03:21.991Z,92.9076
2019-04-16T01:04:30.968Z,93.2754
2019-04-16T01:05:40.301Z,94.8959
2019-04-16T01:06:48.871Z,95.7000
2019-04-16T01:07:57.297Z,93.6873
2019-04-16T01:09:05.988Z,92.3491
2019-04-16T01:10:13.314Z,93.2052
2019-04-16T01:11:21.971Z,92.7626
2019-04-16T01:12:30.267Z,91.8334
2019-04-16T01:13:38.910Z,90.0786
2019-04-16T01:14:47.973Z,91.1604
2019-04-16T01:15:57.194Z,92.0653
2019-04-16T01:17:05.982Z,91.4107
2019-04-16T01:18:14.302Z,90.6020
2019-04-16T01:19:23.028Z,90.7469
2019-04-16T01:20:31.906Z,92.0668
2019-04-16T01:21:44.517Z,90.7759
2019-04-16T01:22:54.081Z,90.8293
2019-04-16T01:24:02.931Z,90.6111
2019-04-16T01:25:11.970Z,91.7968
2019-04-16T01:26:21.220Z,92.3415
2019-04-16T01:27:29.606Z,92.6848
2019-04-16T01:28:38.016Z,93.6599
2019-04-16T01:29:46.960Z,94.3145
2019-04-16T01:30:55.998Z,94.4610
2019-04-16T01:32:10.292Z,94.1619
2019-04-16T01:33:18.292Z,93.1411
2019-04-16T01:34:26.945Z,93.5119
2019-04-16T01:35:35.306Z,94.2962
2019-04-16T01:36:44.342Z,94.0154
2019-04-16T01:37:56.538Z,93.8689
2019-04-16T01:39:16.087Z,93.9651
2019-04-16T01:40:19.354Z,94.4381
2019-04-16T01:41:27.990Z,95.8923
2019-04-16T01:42:36.952Z,95.7885
2019-04-16T01:43:45.991Z,95.1370
2019-04-16T01:44:54.056Z,95.3063
2019-04-16T01:46:02.609Z,94.5068
2019-04-16T01:47:11.871Z,95.0134
2019-04-16T01:48:19.318Z,94.4366
2019-04-16T01:49:27.933Z,93.4447
2019-04-16T01:50:36.278Z,93.2113
2019-04-16T01:51:47.445Z,95.0561
2019-04-16T01:52:57.265Z,97.0413
2019-04-16T01:54:05.928Z,97.7661
2019-04-16T01:55:15.057Z,97.4136
2019-04-16T01:56:27.976Z,96.3561
2019-04-16T01:57:36.281Z,97.4136
2019-04-16T01:58:44.335Z,97.5463
2019-04-16T01:59:53.887Z,97.9019
2019-04-16T02:01:02.364Z,97.9294
2019-04-16T02:02:14.579Z,97.3037
2019-04-16T02:03:24.979Z,94.6166
2019-04-16T02:04:33.781Z,95.0652
2019-04-16T02:05:42.982Z,94.4518
2019-04-16T02:06:54.308Z,91.4946
2019-04-16T02:08:05.329Z,92.0806
2019-04-16T02:09:22.501Z,93.3669
2019-04-16T02:10:26.908Z,94.1588
2019-04-16T02:11:38.816Z,94.9264
2019-04-16T02:12:50.953Z,95.6085
2019-04-16T02:13:59.977Z,95.5993
2019-04-16T02:15:09.094Z,95.5047
2019-04-16T02:16:17.968Z,95.4025
2019-04-16T02:17:27.054Z,95.0881
2019-04-16T02:18:36.917Z,92.9870
2019-04-16T02:19:45.262Z,92.8801
2019-04-16T02:20:52.846Z,93.0007
2019-04-16T02:22:02.015Z,92.9137
2019-04-16T02:23:13.581Z,94.1436
2019-04-16T02:24:24.297Z,94.9783
2019-04-16T02:25:33.947Z,92.8115
2019-04-16T02:26:42.972Z,93.3471
2019-04-16T02:27:54.222Z,93.9940
2019-04-16T02:29:04.965Z,94.3053
2019-04-16T02:30:13.018Z,95.5673
2019-04-16T02:31:21.294Z,96.5805
2019-04-16T02:32:30.043Z,97.0794
2019-04-16T02:33:38.979Z,97.1008
2019-04-16T02:34:47.299Z,96.8780
2019-04-16T02:35:55.978Z,96.7346
2019-04-16T02:37:04.937Z,97.0367
2019-04-16T02:38:14.182Z,96.2631
2019-04-16T02:39:46.288Z,97.1786
2019-04-16T02:40:36.905Z,96.9085
2019-04-16T02:41:45.965Z,97.4136
2019-04-16T02:42:54.969Z,97.8119
2019-04-16T02:44:04.026Z,97.7645
2019-04-16T02:45:13.168Z,96.5423
2019-04-16T02:46:22.066Z,96.5469
2019-04-16T02:47:30.982Z,96.5927
2019-04-16T02:48:38.935Z,96.6293
2019-04-16T02:49:47.298Z,96.9909
2019-04-16T02:50:55.311Z,97.8561
2019-04-16T02:52:04.017Z,98.4939
2019-04-16T02:53:13.113Z,98.7274
2019-04-16T02:54:21.929Z,98.7671
2019-04-16T02:55:30.919Z,98.5351
2019-04-16T02:56:39.398Z,98.3413
2019-04-16T02:57:48.046Z,97.9614
2019-04-16T02:58:56.299Z,97.2763
2019-04-16T03:00:05.384Z,97.4090
2019-04-16T03:01:13.295Z,97.1801
2019-04-16T03:02:23.091Z,97.1649
2019-04-16T03:03:32.635Z,96.9238
2019-04-16T03:04:41.857Z,96.4874
2019-04-16T03:05:50.996Z,97.2671
2019-04-16T03:07:02.784Z,97.5875
2019-04-16T03:08:12.265Z,97.5128
2019-04-16T03:09:21.000Z,97.6959
2019-04-16T03:10:29.357Z,97.5509
2019-04-16T03:11:37.383Z,97.2335
2019-04-16T03:12:46.131Z,97.0382
2019-04-16T03:13:58.288Z,97.2793
2019-04-16T03:15:07.294Z,96.9970
2019-04-16T03:16:14.919Z,96.7025
2019-04-16T03:17:24.182Z,96.1639
2019-04-16T03:18:33.168Z,96.3745
2019-04-16T03:19:41.290Z,96.1822
2019-04-16T03:20:52.474Z,95.6420
2019-04-16T03:22:03.736Z,96.1715
2019-04-16T03:23:12.283Z,97.0047
2019-04-16T03:24:20.950Z,97.4228
2019-04-16T03:25:30.034Z,97.6562
2019-04-16T03:26:38.913Z,98.0591
2019-04-16T03:27:47.932Z,97.7111
2019-04-16T03:28:59.133Z,97.2808
2019-04-16T03:30:07.365Z,97.4319
2019-04-16T03:31:22.287Z,97.4670
2019-04-16T03:32:35.308Z,98.0758
2019-04-16T03:33:50.308Z,97.9980
2019-04-16T03:34:57.278Z,97.2244
2019-04-16T03:36:06.090Z,96.9863
2019-04-16T03:37:14.297Z,97.3205
2019-04-16T03:38:23.203Z,98.0026
2019-04-16T03:39:32.466Z,97.8469
2019-04-16T03:40:39.917Z,96.4920
2019-04-16T03:41:48.288Z,95.5444
2019-04-16T03:42:59.005Z,94.5388
2019-04-16T03:44:09.002Z,93.3059
2019-04-16T03:45:17.276Z,94.7814
2019-04-16T03:46:26.258Z,94.5388
2019-04-16T03:47:35.014Z,94.3496
2019-04-16T03:48:44.020Z,93.4066
2019-04-16T03:49:56.400Z,91.6503
2019-04-16T03:51:06.476Z,94.4961
2019-04-16T03:52:15.163Z,95.2651
2019-04-16T03:53:25.086Z,95.6878
2019-04-16T03:54:34.998Z,96.4691
2019-04-16T03:55:43.933Z,96.7727
2019-04-16T03:56:52.253Z,96.6033
2019-04-16T03:58:05.171Z,96.8994
2019-04-16T03:59:13.887Z,97.2442
2019-04-16T04:00:22.309Z,97.7111
2019-04-16T04:01:30.977Z,97.8607
2019-04-16T04:02:39.881Z,97.9019
2019-04-16T04:03:48.288Z,98.1186
2019-04-16T04:04:57.628Z,98.3047
2019-04-16T04:06:09.402Z,98.4512
2019-04-16T04:07:18.290Z,98.7274
2019-04-16T04:08:27.008Z,98.8556
2019-04-16T04:09:36.005Z,98.9197
2019-04-16T04:10:44.999Z,98.9914
2019-04-16T04:11:53.986Z,99.0280
2019-04-16T04:13:04.921Z,99.1989
2019-04-16T04:14:13.284Z,98.9593
2019-04-16T04:15:25.924Z,98.5077
2019-04-16T04:16:35.948Z,97.9812
2019-04-16T04:17:45.310Z,98.1262
2019-04-16T04:18:53.905Z,97.9126
2019-04-16T04:20:02.930Z,97.1801
2019-04-16T04:21:11.993Z,97.6608
2019-04-16T04:22:22.720Z,97.9889
2019-04-16T04:23:34.291Z,97.9629
2019-04-16T04:24:43.055Z,98.1735
2019-04-16T04:25:51.285Z,97.9843
2019-04-16T04:26:59.273Z,98.5306
2019-04-16T04:28:08.249Z,98.7640
2019-04-16T04:29:16.957Z,97.9339
2019-04-16T04:30:28.906Z,98.0453
2019-04-16T04:31:38.964Z,97.8469
2019-04-16T04:32:51.013Z,97.1557
2019-04-16T04:34:00.013Z,97.4304
2019-04-16T04:35:09.193Z,97.0336
2019-04-16T04:36:19.602Z,97.2030
2019-04-16T04:37:30.904Z,97.4777
2019-04-16T04:38:40.309Z,97.5998
2019-04-16T04:39:48.313Z,97.5418
2019-04-16T04:40:59.623Z,97.3388
2019-04-16T04:42:09.009Z,97.5357
2019-04-16T04:43:17.281Z,97.4548
2019-04-16T04:44:25.961Z,97.7188
2019-04-16T04:45:37.634Z,97.7340
2019-04-16T04:46:48.965Z,97.7020
2019-04-16T04:47:58.065Z,98.4161
2019-04-16T04:49:07.204Z,98.9319
2019-04-16T04:50:15.946Z,98.6496
2019-04-16T04:51:24.295Z,97.7691
2019-04-16T04:52:32.941Z,97.2030
2019-04-16T04:53:41.940Z,95.6558
2019-04-16T04:54:51.409Z,96.0632
2019-04-16T04:56:03.963Z,95.7046
2019-04-16T04:57:12.953Z,95.6863
2019-04-16T04:58:21.918Z,95.7748
2019-04-16T04:59:30.398Z,96.2951
2019-04-16T05:00:40.425Z,96.8002
2019-04-16T05:01:49.340Z,97.2015
2019-04-16T05:02:57.267Z,96.9085
2019-04-16T05:04:05.681Z,96.4019
2019-04-16T05:05:15.254Z,96.1349
2019-04-16T05:06:26.735Z,95.8190
2019-04-16T05:07:36.464Z,96.0845
2019-04-16T05:08:45.008Z,95.8389
2019-04-16T05:09:53.955Z,95.6924
2019-04-16T05:11:03.209Z,95.7839
2019-04-16T05:12:11.931Z,95.6512
2019-04-16T05:13:23.958Z,95.8740
2019-04-16T05:14:33.945Z,95.7732
2019-04-16T05:15:43.241Z,95.7473
2019-04-16T05:16:51.384Z,95.8892
2019-04-16T05:18:00.053Z,95.7961
2019-04-16T05:19:13.839Z,95.7916
2019-04-16T05:20:22.392Z,95.7595
2019-04-16T05:21:31.147Z,95.5871
2019-04-16T05:22:40.985Z,95.8328
2019-04-16T05:23:50.007Z,95.8099
2019-04-16T05:25:01.344Z,95.7916
2019-04-16T05:26:11.797Z,95.7839
2019-04-16T05:27:21.165Z,95.4208
2019-04-16T05:28:30.011Z,95.3567
2019-04-16T05:29:38.302Z,95.4726
2019-04-16T05:30:51.860Z,95.5947
2019-04-16T05:32:00.278Z,95.8144
2019-04-16T05:33:08.268Z,95.9442
2019-04-16T05:34:18.815Z,95.6085
2019-04-16T05:35:28.233Z,95.4711
2019-04-16T05:36:36.390Z,95.5825
2019-04-16T05:37:43.929Z,94.7341
2019-04-16T05:38:55.445Z,95.0271
2019-04-16T05:40:05.932Z,94.9447
2019-04-16T05:41:20.264Z,94.0978
2019-04-16T05:42:27.307Z,93.8338
2019-04-16T05:43:36.231Z,93.3425
2019-04-16T05:44:44.273Z,93.0694
2019-04-16T05:45:52.336Z,93.0266
2019-04-16T05:47:01.145Z,93.1563
2019-04-16T05:48:11.186Z,92.5841
2019-04-16T05:49:24.855Z,92.8847
2019-04-16T05:50:33.293Z,93.4752
2019-04-16T05:51:42.668Z,92.5643
2019-04-16T05:52:52.168Z,91.8868
2019-04-16T05:54:00.370Z,91.9570
2019-04-16T05:55:09.063Z,92.3552
2019-04-16T05:56:22.641Z,92.1172
2019-04-16T05:57:31.371Z,91.9646
2019-04-16T05:58:39.910Z,91.8730
2019-04-16T05:59:49.029Z,91.7266
2019-04-16T06:00:57.988Z,91.6167
2019-04-16T06:02:07.137Z,91.0185
2019-04-16T06:03:20.669Z,91.2703
2019-04-16T06:04:30.023Z,91.7830
2019-04-16T06:05:37.972Z,90.9865
2019-04-16T06:06:47.159Z,86.7018
2019-04-16T06:07:55.576Z,85.3956
2019-04-16T06:09:02.755Z,84.4129
2019-04-16T06:10:17.057Z,83.4424
2019-04-16T06:11:29.224Z,84.2481
2019-04-16T06:12:40.167Z,83.5691
2019-04-16T06:13:48.948Z,82.5483
2019-04-16T06:14:57.997Z,81.7609
2019-04-16T06:16:06.925Z,82.1408
2019-04-16T06:17:15.965Z,82.7771
2019-04-16T06:18:24.894Z,83.5782
2019-04-16T06:19:34.441Z,81.3413
2019-04-16T06:20:43.059Z,80.5066
2019-04-16T06:24:08.376Z,80.9598
2019-04-16T06:25:18.183Z,75.0835
2019-04-16T06:26:27.958Z,74.4045
2019-04-16T06:27:38.668Z,73.6797
2019-04-16T06:28:48.333Z,75.2743
2019-04-16T06:30:01.210Z,79.3072
2019-04-16T06:31:11.337Z,78.0804
2019-04-16T06:32:22.154Z,77.0611
2019-04-16T06:33:31.674Z,76.9818
2019-04-16T06:34:41.933Z,76.2509
2019-04-16T06:35:51.835Z,81.0513
2019-04-16T06:37:01.958Z,82.8428
2019-04-16T06:38:12.053Z,84.4022
2019-04-16T06:39:22.045Z,85.8320
2019-04-16T06:40:32.852Z,86.1067
2019-04-16T06:41:47.665Z,87.0771
2019-04-16T06:42:58.001Z,84.8646
2019-04-16T06:44:09.878Z,82.7268
2019-04-16T06:45:20.499Z,83.9872
2019-04-16T06:46:29.755Z,84.6052
2019-04-16T06:47:41.782Z,80.7538
2019-04-16T06:48:51.290Z,79.3668
2019-04-16T06:50:00.306Z,75.5261
2019-04-16T06:51:12.507Z,74.5815
2019-04-16T06:52:21.909Z,72.7382
2019-04-16T06:53:32.317Z,73.5241
2019-04-16T06:54:45.310Z,74.1466
2019-04-16T06:55:56.786Z,75.2331
2019-04-16T06:57:05.949Z,75.4177
2019-04-16T06:58:16.428Z,72.9793
2019-04-16T06:59:29.337Z,70.2800
2019-04-16T07:00:40.005Z,71.7083
2019-04-16T07:01:50.068Z,72.0974
2019-04-16T07:03:02.468Z,72.8023
2019-04-16T07:04:13.005Z,73.5805
2019-04-16T07:05:33.266Z,75.8389
2019-04-16T07:06:43.730Z,74.0642
2019-04-16T07:07:54.237Z,73.5393
2019-04-16T07:09:04.390Z,74.6563
2019-04-16T07:10:15.047Z,71.5801
2019-04-16T07:11:26.161Z,71.0658
2019-04-16T07:13:58.362Z,71.1131
2019-04-16T07:15:07.699Z,69.4926
2019-04-16T07:16:16.330Z,67.0100
2019-04-16T07:17:26.052Z,67.0298
2019-04-16T07:18:38.579Z,65.6062
2019-04-16T07:19:48.289Z,67.0283
2019-04-16T07:20:57.355Z,70.1503
2019-04-16T07:22:07.040Z,72.1065
2019-04-16T07:23:17.767Z,73.2860
2019-04-16T07:24:30.807Z,72.8298
2019-04-16T07:25:44.144Z,74.7433
2019-04-16T07:26:56.618Z,76.2676
2019-04-16T07:28:09.272Z,75.8785
2019-04-16T07:29:24.307Z,75.3994
2019-04-16T07:30:38.419Z,76.4279
2019-04-16T07:31:53.251Z,76.1959
2019-04-16T07:33:05.524Z,75.6680
2019-04-16T07:34:14.289Z,77.7279
2019-04-16T07:35:27.889Z,76.4111
2019-04-16T07:36:42.101Z,77.2931
2019-04-16T07:37:53.018Z,77.7890
2019-04-16T07:39:07.631Z,77.3632
2019-04-16T07:40:16.369Z,74.8623
2019-04-16T07:41:27.295Z,75.2285
2019-04-16T07:42:51.692Z,76.6445
2019-04-16T07:43:57.218Z,76.5667
2019-04-16T07:45:11.431Z,78.0484
2019-04-16T07:46:21.392Z,73.6568
2019-04-16T07:47:32.966Z,72.6421
2019-04-16T07:48:45.984Z,73.0663
2019-04-16T07:49:59.855Z,71.6472
2019-04-16T07:51:10.360Z,73.7179
2019-04-16T07:52:21.334Z,70.5638
2019-04-16T07:53:31.538Z,67.6143
2019-04-16T07:54:40.311Z,67.1382
2019-04-16T07:55:49.431Z,67.6799
2019-04-16T07:56:58.314Z,68.4382
2019-04-16T07:58:08.365Z,66.2974
2019-04-16T07:59:19.026Z,64.4648
2019-04-16T08:00:29.119Z,66.5522
2019-04-16T08:01:39.932Z,66.2196
2019-04-16T08:02:53.867Z,66.6682
2019-04-16T08:04:03.612Z,68.9372
2019-04-16T08:05:12.328Z,67.8935
2019-04-16T08:06:21.334Z,68.7099
2019-04-16T08:07:32.251Z,69.0852
2019-04-16T08:08:42.646Z,70.4631
2019-04-16T08:09:51.302Z,67.8386
2019-04-16T08:12:33.326Z,68.4215
2019-04-16T08:13:45.764Z,66.7124
2019-04-16T08:14:54.362Z,69.5735
2019-04-16T08:16:04.317Z,69.9260
2019-04-16T08:17:14.031Z,68.7175
2019-04-16T08:19:44.797Z,73.1365
2019-04-16T08:21:01.701Z,68.3482
2019-04-16T08:22:15.530Z,68.7495
2019-04-16T08:23:25.077Z,70.1320
2019-04-16T08:24:34.393Z,68.5771
2019-04-16T08:25:44.761Z,69.4194
2019-04-16T08:26:56.254Z,68.8960
2019-04-16T08:28:09.443Z,68.3833
2019-04-16T08:29:18.501Z,68.7404
2019-04-16T08:30:27.391Z,68.9525
2019-04-16T08:33:05.481Z,67.4540
2019-04-16T08:35:39.339Z,67.1107
2019-04-16T08:38:20.674Z,65.4414
2019-04-16T08:39:29.375Z,64.7944
2019-04-16T08:42:06.817Z,67.2572
2019-04-16T08:43:22.356Z,64.7868
2019-04-16T08:44:35.796Z,62.5055
2019-04-16T08:49:54.081Z,63.3768
2019-04-16T08:52:26.290Z,62.8306
2019-04-16T08:54:55.400Z,65.6458
2019-04-16T08:56:05.020Z,64.5853
2019-04-16T08:57:18.041Z,62.6307
2019-04-16T08:59:54.858Z,64.9088
2019-04-16T09:01:04.296Z,66.6941
2019-04-16T09:02:13.816Z,67.3167
2019-04-16T09:03:26.716Z,63.7827
2019-04-16T09:04:37.311Z,64.8905
2019-04-16T09:05:46.293Z,64.2100
2019-04-16T09:07:09.634Z,64.2496
2019-04-16T09:08:13.943Z,63.3204
2019-04-16T09:09:25.555Z,63.9384
2019-04-16T09:10:34.390Z,63.5905
2019-04-16T09:11:44.194Z,65.6336
2019-04-16T09:13:03.319Z,62.0264
2019-04-16T09:14:16.841Z,62.1637
2019-04-16T09:15:29.343Z,63.4134
2019-04-16T09:16:45.219Z,66.4302
2019-04-16T09:17:57.093Z,65.6779
2019-04-16T09:19:08.593Z,61.8891
2019-04-16T09:20:17.272Z,64.9912
2019-04-16T09:21:31.255Z,63.5096
2019-04-16T09:24:08.862Z,61.9348
2019-04-16T09:25:22.987Z,59.7055
2019-04-16T09:26:36.437Z,58.6145
2019-04-16T09:30:30.925Z,55.6222
2019-04-16T09:33:01.886Z,53.0495
2019-04-16T09:34:10.481Z,58.1750
2019-04-16T09:35:20.752Z,58.9227
2019-04-16T09:40:36.588Z,62.1591
2019-04-16T09:42:01.755Z,60.2579
2019-04-16T09:43:17.441Z,52.6741
2019-04-16T09:47:16.733Z,51.6442
2019-04-16T09:52:38.562Z,56.1929
2019-04-16T09:55:19.634Z,59.3423
2019-04-16T09:56:30.116Z,55.3048
2019-04-16T09:57:39.994Z,56.5225
2019-04-16T10:03:01.356Z,58.3352
2019-04-16T10:04:15.655Z,55.7900
2019-04-16T10:09:37.586Z,57.2732
2019-04-16T10:13:35.747Z,52.7825
2019-04-16T10:14:48.576Z,55.9274
2019-04-16T10:15:57.403Z,55.9411
2019-04-16T10:17:06.341Z,57.4395
2019-04-16T10:19:56.724Z,56.3775
2019-04-16T10:21:08.474Z,52.9854
2019-04-16T10:22:17.310Z,52.4407
2019-04-16T10:23:29.673Z,53.4249
2019-04-16T10:24:59.775Z,53.5470
2019-04-16T10:26:08.348Z,52.5414
2019-04-16T10:28:39.346Z,52.5460
2019-04-16T10:31:14.699Z,53.0907
2019-04-16T10:38:16.410Z,50.8232
2019-04-16T10:39:26.358Z,51.1406
2019-04-16T10:40:39.933Z,53.8964
2019-04-16T10:43:09.336Z,54.2397
2019-04-16T10:45:51.170Z,47.8126
2019-04-16T10:47:01.492Z,49.1218
2019-04-16T10:49:30.473Z,50.8843
2019-04-16T10:52:04.855Z,51.0613
2019-04-16T10:54:39.817Z,52.0287
2019-04-16T10:55:50.557Z,48.0812
2019-04-16T10:56:59.313Z,48.2567
2019-04-16T10:58:10.147Z,49.9077
2019-04-16T10:59:23.027Z,48.2231
2019-04-16T11:00:39.373Z,52.4620
2019-04-16T11:04:35.953Z,46.5126
2019-04-16T11:05:45.372Z,51.2184
2019-04-16T11:06:58.927Z,52.0058
2019-04-16T11:08:09.431Z,49.5781
2019-04-16T11:09:22.097Z,53.6706
2019-04-16T11:10:31.345Z,49.9138
2019-04-16T11:11:44.898Z,50.4158
2019-04-16T11:12:54.317Z,52.7504
2019-04-16T11:14:03.376Z,50.2831
2019-04-16T11:15:35.246Z,49.0852
2019-04-16T11:16:45.032Z,49.0394
2019-04-16T11:19:24.561Z,48.7266
2019-04-16T11:20:34.643Z,50.6462
2019-04-16T11:21:44.713Z,50.4906
2019-04-16T11:22:56.041Z,49.5705
2019-04-16T11:24:08.191Z,51.7250
2019-04-16T11:25:21.218Z,48.7861
2019-04-16T11:26:32.950Z,49.2775
2019-04-16T11:27:42.445Z,49.7353
2019-04-16T11:31:35.345Z,53.3883
2019-04-16T11:32:43.667Z,51.3085
2019-04-16T11:39:29.250Z,51.2139
2019-04-16T11:42:13.101Z,46.4439
2019-04-16T11:43:25.747Z,48.0674
2019-04-16T11:44:38.178Z,46.4393
2019-04-16T11:45:48.136Z,46.1448
2019-04-16T11:46:58.409Z,44.0299
2019-04-16T11:48:07.381Z,45.5787
2019-04-16T11:49:18.294Z,45.5634
2019-04-16T11:50:29.650Z,43.4272
2019-04-16T11:51:38.250Z,44.6983
2019-04-16T11:52:48.364Z,45.9022
2019-04-16T11:54:00.699Z,50.5852
2019-04-16T11:55:10.067Z,50.7286
2019-04-16T11:56:22.497Z,52.7733
2019-04-16T11:57:37.069Z,46.9871
2019-04-16T11:58:47.541Z,53.2143
2019-04-16T12:00:06.714Z,46.7491
2019-04-16T12:01:11.354Z,47.0741
2019-04-16T12:02:20.557Z,47.6982
2019-04-16T12:03:34.928Z,48.2185
2019-04-16T12:04:55.856Z,49.7261
2019-04-16T12:06:10.623Z,48.3894
2019-04-16T12:07:20.003Z,49.4362
2019-04-16T12:08:30.004Z,46.9429
2019-04-16T12:09:39.358Z,48.1559
2019-04-16T12:10:49.381Z,48.8182
2019-04-16T12:12:00.281Z,49.3675
2019-04-16T12:13:09.909Z,48.0171
2019-04-16T12:14:30.775Z,48.5451
2019-04-16T12:15:36.541Z,50.2342
2019-04-16T12:16:46.101Z,52.4315
2019-04-16T12:17:55.487Z,47.5731
2019-04-16T12:19:05.243Z,47.7836
2019-04-16T12:20:14.386Z,47.8859
2019-04-16T12:21:24.244Z,49.9077
2019-04-16T12:22:36.962Z,48.4901
2019-04-16T12:23:47.090Z,49.2042
2019-04-16T12:24:57.530Z,51.0079
2019-04-16T12:26:09.404Z,51.3420
2019-04-16T12:27:19.747Z,50.3655
2019-04-16T12:28:30.123Z,50.2571
2019-04-16T12:29:41.435Z,52.4910
2019-04-16T12:30:51.365Z,49.2256
2019-04-16T12:32:03.588Z,51.0033
2019-04-16T12:33:15.198Z,51.6670
2019-04-16T12:34:25.736Z,55.2972
2019-04-16T12:35:35.657Z,48.6412
2019-04-16T12:36:46.859Z,48.6030
2019-04-16T12:37:58.433Z,47.8813
2019-04-16T12:39:10.140Z,47.3167
2019-04-16T12:40:21.172Z,44.7852
2019-04-16T12:41:30.298Z,46.5126
2019-04-16T12:42:42.875Z,48.1926
2019-04-16T12:43:51.789Z,44.4968
